createdAt,value
2023-03-28T00:01:04.280Z,23.20
2023-03-28T00:03:36.006Z,22.90
2023-03-28T00:06:05.821Z,22.90
2023-03-28T00:08:33.334Z,22.20
2023-03-28T00:11:05.473Z,22.10
2023-03-28T00:13:32.773Z,21.70
2023-03-28T00:16:05.996Z,21.10
2023-03-28T00:18:37.798Z,21.20
2023-03-28T00:21:08.210Z,21.40
2023-03-28T00:23:36.022Z,21.10
2023-03-28T00:26:08.001Z,20.90
2023-03-28T00:28:35.363Z,21.30
2023-03-28T00:31:07.055Z,21.00
2023-03-28T00:33:34.396Z,20.70
2023-03-28T00:36:01.868Z,20.50
2023-03-28T00:38:29.310Z,20.30
2023-03-28T00:40:58.016Z,20.20
2023-03-28T00:43:42.517Z,20.10
2023-03-28T00:46:18.678Z,20.10
2023-03-28T00:49:10.110Z,20.30
2023-03-28T00:51:42.072Z,20.20
2023-03-28T00:54:13.337Z,20.10
2023-03-28T00:56:44.641Z,20.00
2023-03-28T00:59:17.046Z,19.90
2023-03-28T01:01:45.721Z,20.00
2023-03-28T01:04:20.596Z,20.00
2023-03-28T01:06:55.013Z,20.10
2023-03-28T01:09:24.214Z,20.00
2023-03-28T01:11:53.871Z,20.00
2023-03-28T01:14:24.143Z,20.00
2023-03-28T01:16:51.430Z,19.90
2023-03-28T01:19:43.087Z,19.90
2023-03-28T01:22:33.496Z,20.20
2023-03-28T01:25:30.664Z,20.50
2023-03-28T01:28:08.050Z,20.80
2023-03-28T01:31:05.830Z,20.50
2023-03-28T01:33:41.757Z,20.30
2023-03-28T01:36:46.334Z,20.60
2023-03-28T01:39:18.947Z,20.40
2023-03-28T01:42:07.182Z,20.60
2023-03-28T01:44:49.686Z,20.20
2023-03-28T01:47:29.461Z,20.30
2023-03-28T01:50:15.080Z,20.00
2023-03-28T01:53:08.822Z,20.20
2023-03-28T01:55:56.338Z,19.50
2023-03-28T01:58:23.584Z,19.50
2023-03-28T02:00:56.034Z,19.10
2023-03-28T02:03:46.956Z,19.40
2023-03-28T02:06:14.523Z,19.70
2023-03-28T02:08:44.780Z,19.40
2023-03-28T02:11:12.330Z,19.50
2023-03-28T02:13:47.202Z,19.40
2023-03-28T02:16:16.944Z,19.70
2023-03-28T02:18:49.314Z,19.90
2023-03-28T02:21:23.813Z,19.60
2023-03-28T02:23:56.088Z,19.90
2023-03-28T02:26:25.459Z,18.90
2023-03-28T02:28:57.134Z,19.70
2023-03-28T02:31:25.069Z,19.40
2023-03-28T02:33:53.286Z,19.50
2023-03-28T02:36:46.931Z,19.50
2023-03-28T02:39:16.912Z,19.00
2023-03-28T02:41:49.917Z,19.40
2023-03-28T02:44:41.350Z,19.60
2023-03-28T02:47:27.265Z,19.20
2023-03-28T02:50:15.077Z,19.00
2023-03-28T02:52:52.441Z,19.80
2023-03-28T02:55:54.566Z,19.20
2023-03-28T02:58:37.877Z,19.40
2023-03-28T03:01:08.408Z,19.00
2023-03-28T03:03:37.211Z,18.80
2023-03-28T03:06:05.597Z,18.70
2023-03-28T03:08:32.894Z,18.50
2023-03-28T03:10:59.991Z,18.50
2023-03-28T03:13:27.005Z,18.20
2023-03-28T03:15:54.727Z,18.10
2023-03-28T03:18:22.124Z,18.30
2023-03-28T03:20:50.555Z,18.40
2023-03-28T03:23:17.814Z,18.40
2023-03-28T03:25:45.433Z,18.60
2023-03-28T03:28:13.196Z,18.70
2023-03-28T03:30:40.358Z,19.00
2023-03-28T03:33:10.545Z,18.80
2023-03-28T03:35:38.621Z,19.90
2023-03-28T03:38:05.788Z,19.50
2023-03-28T03:40:32.931Z,19.10
2023-03-28T03:42:59.949Z,19.10
2023-03-28T03:45:28.127Z,19.20
2023-03-28T03:47:55.265Z,18.90
2023-03-28T03:50:22.417Z,18.80
2023-03-28T03:52:49.440Z,18.50
2023-03-28T03:55:16.519Z,18.40
2023-03-28T03:57:43.510Z,18.60
2023-03-28T04:00:13.991Z,18.60
2023-03-28T04:02:41.433Z,18.50
2023-03-28T04:05:08.889Z,18.60
2023-03-28T04:07:37.521Z,18.50
2023-03-28T04:10:05.865Z,18.80
2023-03-28T04:12:32.891Z,18.90
2023-03-28T04:14:59.973Z,18.60
2023-03-28T04:17:30.181Z,19.00
2023-03-28T04:19:57.697Z,18.40
2023-03-28T04:22:30.142Z,18.30
2023-03-28T04:24:57.899Z,18.30
2023-03-28T04:27:31.454Z,18.20
2023-03-28T04:30:00.746Z,18.40
2023-03-28T04:32:28.063Z,18.30
2023-03-28T04:34:55.162Z,18.30
2023-03-28T04:37:22.696Z,18.50
2023-03-28T04:39:49.779Z,18.60
2023-03-28T04:42:17.371Z,18.30
2023-03-28T04:44:44.531Z,20.70
2023-03-28T04:47:15.287Z,21.30
2023-03-28T04:49:42.234Z,21.80
2023-03-28T04:52:09.506Z,22.10
2023-03-28T04:54:36.531Z,22.30
2023-03-28T04:57:05.043Z,22.50
2023-03-28T04:59:32.188Z,21.40
2023-03-28T05:01:59.287Z,20.80
2023-03-28T05:04:27.933Z,20.50
2023-03-28T05:06:55.086Z,20.00
2023-03-28T05:09:22.939Z,19.70
2023-03-28T05:11:50.811Z,19.50
2023-03-28T05:14:18.209Z,19.30
2023-03-28T05:16:45.597Z,19.20
2023-03-28T05:19:12.888Z,18.70
2023-03-28T05:21:41.164Z,18.90
2023-03-28T05:24:09.183Z,18.70
2023-03-28T05:26:36.757Z,18.50
2023-03-28T05:29:04.212Z,18.20
2023-03-28T05:31:31.277Z,18.40
2023-03-28T05:33:58.315Z,18.60
2023-03-28T05:36:25.614Z,18.40
2023-03-28T05:38:52.597Z,18.50
2023-03-28T05:41:19.670Z,18.60
2023-03-28T05:43:46.644Z,18.70
2023-03-28T05:46:13.644Z,18.70
2023-03-28T05:48:40.734Z,19.10
2023-03-28T05:51:07.796Z,18.60
2023-03-28T05:53:34.846Z,18.40
2023-03-28T05:56:03.129Z,17.80
2023-03-28T05:58:30.234Z,18.20
2023-03-28T06:00:58.018Z,18.10
2023-03-28T06:03:26.122Z,17.20
2023-03-28T06:05:53.310Z,17.40
2023-03-28T06:08:20.433Z,17.30
2023-03-28T06:10:47.540Z,16.30
2023-03-28T06:13:14.762Z,16.40
2023-03-28T06:15:41.887Z,16.00
2023-03-28T06:18:09.073Z,16.10
2023-03-28T06:20:36.218Z,15.80
2023-03-28T06:23:04.097Z,16.20
2023-03-28T06:25:31.105Z,15.60
2023-03-28T06:27:58.296Z,16.50
2023-03-28T06:30:25.347Z,16.30
2023-03-28T06:32:52.583Z,16.80
2023-03-28T06:35:19.807Z,17.40
2023-03-28T06:37:46.857Z,18.00
2023-03-28T06:40:13.875Z,18.10
2023-03-28T06:42:40.873Z,17.80
2023-03-28T06:45:08.535Z,17.80
2023-03-28T06:47:35.748Z,17.20
2023-03-28T06:50:02.871Z,17.00
2023-03-28T06:52:29.893Z,17.00
2023-03-28T06:54:57.001Z,17.90
2023-03-28T06:57:24.055Z,18.20
2023-03-28T06:59:52.468Z,19.10
2023-03-28T07:02:19.585Z,20.00
2023-03-28T07:04:46.773Z,20.00
2023-03-28T07:07:14.525Z,19.00
2023-03-28T07:09:41.736Z,18.10
2023-03-28T07:12:08.880Z,17.10
2023-03-28T07:14:36.306Z,17.20
2023-03-28T07:17:03.438Z,17.90
2023-03-28T07:19:30.687Z,17.90
2023-03-28T07:21:57.798Z,17.10
2023-03-28T07:24:24.890Z,16.40
2023-03-28T07:26:54.857Z,16.20
2023-03-28T07:29:28.609Z,15.40
2023-03-28T07:31:55.743Z,14.70
2023-03-28T07:34:22.936Z,15.30
2023-03-28T07:36:49.948Z,15.80
2023-03-28T07:39:16.954Z,15.60
2023-03-28T07:41:44.079Z,15.50
2023-03-28T07:44:11.115Z,15.80
2023-03-28T07:46:38.156Z,14.80
2023-03-28T07:49:05.257Z,16.00
2023-03-28T07:51:32.475Z,15.30
2023-03-28T07:53:59.633Z,15.90
2023-03-28T07:56:26.733Z,15.60
2023-03-28T07:58:56.728Z,16.50
2023-03-28T08:01:24.005Z,15.40
2023-03-28T08:03:51.173Z,16.10
2023-03-28T08:06:31.631Z,16.00
2023-03-28T08:08:59.380Z,15.60
2023-03-28T08:11:27.334Z,15.70
2023-03-28T08:13:54.364Z,15.90
2023-03-28T08:16:21.556Z,15.80
2023-03-28T08:18:57.019Z,16.10
2023-03-28T08:21:35.337Z,14.80
2023-03-28T08:24:03.272Z,14.40
2023-03-28T08:26:30.501Z,14.60
2023-03-28T08:28:59.071Z,14.50
2023-03-28T08:31:27.801Z,13.90
2023-03-28T08:33:56.110Z,13.90
2023-03-28T08:36:25.383Z,14.00
2023-03-28T08:39:00.562Z,14.30
2023-03-28T08:42:17.052Z,14.40
2023-03-28T08:44:45.165Z,14.90
2023-03-28T08:47:18.928Z,13.50
2023-03-28T08:49:54.799Z,13.90
2023-03-28T08:52:21.892Z,13.20
2023-03-28T08:54:51.902Z,14.20
2023-03-28T08:57:32.165Z,13.10
2023-03-28T09:00:15.523Z,13.00
2023-03-28T09:02:44.197Z,13.30
2023-03-28T09:05:23.111Z,13.60
2023-03-28T09:08:27.815Z,12.60
2023-03-28T09:11:27.828Z,13.40
2023-03-28T09:14:19.551Z,14.40
2023-03-28T09:17:04.743Z,14.00
2023-03-28T09:20:00.793Z,13.20
2023-03-28T09:23:06.326Z,13.70
2023-03-28T09:25:41.597Z,13.20
2023-03-28T09:28:46.925Z,12.90
2023-03-28T09:31:19.181Z,13.50
2023-03-28T09:33:49.369Z,13.70
2023-03-28T09:36:31.531Z,13.20
2023-03-28T09:39:12.397Z,13.60
2023-03-28T09:42:06.356Z,13.30
2023-03-28T09:44:53.529Z,13.40
2023-03-28T09:47:21.581Z,13.60
2023-03-28T09:49:50.759Z,13.40
2023-03-28T09:52:22.084Z,12.90
2023-03-28T09:54:49.966Z,12.40
2023-03-28T09:57:17.260Z,11.90
2023-03-28T09:59:44.489Z,12.60
2023-03-28T10:02:32.709Z,12.90
2023-03-28T10:05:00.244Z,12.70
2023-03-28T10:07:33.874Z,12.30
2023-03-28T10:10:13.707Z,13.00
2023-03-28T10:12:43.679Z,13.20
2023-03-28T10:15:31.004Z,13.10
2023-03-28T10:18:01.849Z,12.60
2023-03-28T10:20:36.352Z,12.30
2023-03-28T10:23:04.799Z,12.00
2023-03-28T10:25:37.923Z,12.90
2023-03-28T10:28:07.708Z,12.40
2023-03-28T10:30:36.932Z,12.40
2023-03-28T10:33:18.646Z,12.30
2023-03-28T10:36:03.552Z,12.90
2023-03-28T10:38:45.504Z,13.10
2023-03-28T10:41:22.295Z,12.30
2023-03-28T10:43:51.272Z,12.20
2023-03-28T10:46:22.073Z,12.30
2023-03-28T10:48:53.475Z,12.10
2023-03-28T10:51:23.319Z,12.40
2023-03-28T10:54:08.523Z,13.00
2023-03-28T10:56:41.498Z,12.70
2023-03-28T10:59:27.480Z,12.90
2023-03-28T11:02:19.169Z,12.30
2023-03-28T11:05:04.866Z,12.50
2023-03-28T11:07:46.911Z,12.00
2023-03-28T11:10:24.181Z,12.20
2023-03-28T11:13:14.854Z,12.20
2023-03-28T11:16:12.322Z,12.70
2023-03-28T11:19:13.480Z,12.30
2023-03-28T11:21:59.061Z,12.80
2023-03-28T11:24:40.751Z,12.00
2023-03-28T11:27:28.704Z,12.20
2023-03-28T11:30:16.348Z,11.80
2023-03-28T11:33:07.097Z,12.20
2023-03-28T11:35:47.409Z,13.10
2023-03-28T11:38:46.550Z,13.90
2023-03-28T11:41:22.587Z,13.70
2023-03-28T11:44:11.192Z,13.50
2023-03-28T11:46:56.641Z,13.30
2023-03-28T11:49:32.984Z,13.60
2023-03-28T11:52:09.419Z,14.40
2023-03-28T11:54:44.627Z,14.90
2023-03-28T11:57:35.112Z,14.00
2023-03-28T12:00:33.171Z,13.70
2023-03-28T12:03:08.063Z,14.00
2023-03-28T12:05:45.795Z,12.80
2023-03-28T12:08:22.314Z,13.30
2023-03-28T12:10:58.342Z,13.30
2023-03-28T12:14:11.701Z,13.60
2023-03-28T12:16:45.418Z,13.90
2023-03-28T12:19:17.413Z,13.80
2023-03-28T12:21:49.774Z,14.20
2023-03-28T12:24:54.832Z,14.30
2023-03-28T12:27:45.130Z,13.20
2023-03-28T12:30:41.411Z,14.20
2023-03-28T12:33:22.820Z,13.70
2023-03-28T12:36:26.180Z,13.60
2023-03-28T12:39:05.943Z,14.70
2023-03-28T12:41:39.182Z,14.10
2023-03-28T12:44:24.578Z,13.80
2023-03-28T12:46:57.048Z,13.30
2023-03-28T12:50:05.055Z,12.80
2023-03-28T12:52:36.533Z,12.90
2023-03-28T12:55:27.868Z,13.30
2023-03-28T12:58:32.015Z,13.40
2023-03-28T13:01:16.345Z,13.30
2023-03-28T13:03:51.489Z,12.90
2023-03-28T13:06:43.971Z,13.40
2023-03-28T13:09:48.439Z,13.30
2023-03-28T13:12:33.637Z,13.30
2023-03-28T13:15:22.424Z,12.70
2023-03-28T13:18:20.301Z,13.20
2023-03-28T13:20:52.598Z,13.90
2023-03-28T13:23:28.729Z,14.40
2023-03-28T13:25:59.627Z,14.50
2023-03-28T13:28:51.749Z,14.60
2023-03-28T13:31:23.213Z,14.70
2023-03-28T13:34:02.606Z,14.10
2023-03-28T13:36:34.387Z,14.10
2023-03-28T13:39:25.466Z,14.30
2023-03-28T13:41:52.687Z,14.00
2023-03-28T13:44:41.078Z,13.40
2023-03-28T13:47:16.735Z,13.60
2023-03-28T13:50:01.553Z,13.30
2023-03-28T13:52:29.871Z,13.90
2023-03-28T13:55:14.083Z,14.20
2023-03-28T13:57:41.602Z,14.10
2023-03-28T14:00:16.615Z,13.90
2023-03-28T14:02:50.136Z,13.60
2023-03-28T14:05:26.366Z,13.30
2023-03-28T14:07:55.804Z,13.50
2023-03-28T14:10:28.340Z,13.70
2023-03-28T14:12:58.470Z,13.50
2023-03-28T14:15:30.485Z,13.50
2023-03-28T14:17:59.775Z,14.10
2023-03-28T14:20:28.448Z,13.60
2023-03-28T14:23:00.453Z,13.70
2023-03-28T14:25:28.821Z,13.60
2023-03-28T14:27:57.391Z,13.70
2023-03-28T14:30:27.045Z,12.90
2023-03-28T14:33:00.245Z,13.30
2023-03-28T14:35:29.913Z,13.70
2023-03-28T14:37:59.496Z,13.70
2023-03-28T14:40:29.467Z,13.50
2023-03-28T14:43:04.699Z,13.30
2023-03-28T14:45:37.913Z,13.30
2023-03-28T14:48:08.862Z,13.40
2023-03-28T14:50:38.310Z,12.90
2023-03-28T14:53:09.627Z,12.90
2023-03-28T14:55:37.778Z,13.00
2023-03-28T14:58:06.668Z,13.00
2023-03-28T15:00:38.623Z,13.20
2023-03-28T15:03:15.802Z,13.40
2023-03-28T15:05:51.066Z,13.40
2023-03-28T15:08:38.323Z,13.20
2023-03-28T15:11:19.841Z,13.20
2023-03-28T15:13:50.615Z,13.30
2023-03-28T15:16:23.471Z,13.60
2023-03-28T15:18:57.473Z,13.70
2023-03-28T15:21:25.088Z,13.80
2023-03-28T15:23:59.579Z,14.00
2023-03-28T15:26:35.713Z,14.00
2023-03-28T15:29:04.927Z,13.80
2023-03-28T15:31:32.618Z,13.70
2023-03-28T15:34:00.059Z,14.00
2023-03-28T15:36:32.682Z,13.80
2023-03-28T15:39:27.415Z,14.00
2023-03-28T15:42:22.801Z,14.10
2023-03-28T15:44:58.957Z,14.10
2023-03-28T15:47:30.321Z,13.90
2023-03-28T15:50:04.197Z,14.00
2023-03-28T15:52:32.048Z,14.40
2023-03-28T15:55:01.869Z,14.60
2023-03-28T15:57:30.867Z,14.70
2023-03-28T15:59:58.966Z,14.70
2023-03-28T16:02:26.546Z,14.30
2023-03-28T16:05:08.488Z,14.60
2023-03-28T16:07:44.386Z,14.50
2023-03-28T16:10:13.375Z,14.20
2023-03-28T16:12:41.281Z,14.10
2023-03-28T16:15:09.455Z,14.10
2023-03-28T16:17:36.728Z,14.30
2023-03-28T16:20:18.248Z,14.60
2023-03-28T16:22:45.701Z,14.40
2023-03-28T16:25:12.992Z,14.30
2023-03-28T16:27:40.603Z,14.20
2023-03-28T16:30:16.502Z,14.10
2023-03-28T16:32:43.512Z,14.20
2023-03-28T16:35:11.501Z,14.20
2023-03-28T16:37:38.571Z,14.30
2023-03-28T16:40:06.365Z,14.50
2023-03-28T16:42:33.370Z,14.80
2023-03-28T16:45:00.367Z,15.10
2023-03-28T16:47:29.182Z,14.70
2023-03-28T16:49:56.313Z,14.90
2023-03-28T16:52:23.366Z,14.70
2023-03-28T16:54:51.046Z,14.90
2023-03-28T16:57:18.093Z,14.80
2023-03-28T16:59:45.231Z,15.00
2023-03-28T17:02:12.933Z,14.90
2023-03-28T17:04:39.940Z,14.80
2023-03-28T17:07:06.992Z,14.90
2023-03-28T17:09:35.023Z,15.00
2023-03-28T17:12:02.119Z,14.80
2023-03-28T17:14:29.132Z,15.40
2023-03-28T17:16:56.388Z,15.40
2023-03-28T17:19:24.219Z,15.50
2023-03-28T17:21:51.219Z,15.20
2023-03-28T17:24:20.609Z,15.00
2023-03-28T17:26:47.857Z,15.00
2023-03-28T17:29:16.194Z,15.00
2023-03-28T17:31:43.349Z,14.90
2023-03-28T17:34:13.264Z,15.30
2023-03-28T17:36:44.386Z,15.20
2023-03-28T17:39:14.377Z,15.20
2023-03-28T17:41:42.598Z,15.70
2023-03-28T17:44:15.170Z,15.30
2023-03-28T17:46:42.893Z,15.20
2023-03-28T17:49:09.990Z,15.30
2023-03-28T17:51:37.205Z,15.30
2023-03-28T17:54:12.057Z,15.30
2023-03-28T17:56:40.341Z,15.30
2023-03-28T17:59:08.850Z,15.20
2023-03-28T18:01:35.993Z,15.10
2023-03-28T18:04:03.724Z,15.20
2023-03-28T18:06:31.160Z,15.20
2023-03-28T18:08:58.238Z,15.30
2023-03-28T18:11:25.426Z,15.30
2023-03-28T18:13:57.109Z,15.40
2023-03-28T18:16:24.957Z,15.40
2023-03-28T18:18:54.358Z,15.60
2023-03-28T18:21:22.098Z,15.50
2023-03-28T18:23:49.498Z,15.60
2023-03-28T18:26:16.717Z,15.70
2023-03-28T18:28:43.777Z,15.50
2023-03-28T18:31:16.665Z,15.70
2023-03-28T18:33:44.658Z,15.70
2023-03-28T18:36:13.470Z,15.70
2023-03-28T18:38:42.927Z,15.70
2023-03-28T18:41:11.369Z,15.90
2023-03-28T18:43:39.827Z,15.80
2023-03-28T18:46:11.020Z,15.80
2023-03-28T18:48:40.216Z,16.00
2023-03-28T18:51:07.797Z,16.30
2023-03-28T18:53:38.343Z,16.20
2023-03-28T18:56:07.434Z,16.30
2023-03-28T18:58:37.358Z,16.80
2023-03-28T19:01:06.287Z,17.40
2023-03-28T19:03:43.033Z,17.10
2023-03-28T19:06:12.534Z,16.90
2023-03-28T19:08:41.083Z,17.20
2023-03-28T19:11:19.300Z,17.20
2023-03-28T19:13:46.456Z,17.40
2023-03-28T19:16:15.801Z,17.70
2023-03-28T19:18:44.968Z,17.90
2023-03-28T19:21:13.400Z,17.60
2023-03-28T19:23:40.913Z,17.20
2023-03-28T19:26:09.516Z,16.80
2023-03-28T19:28:37.343Z,16.40
2023-03-28T19:31:08.124Z,16.20
2023-03-28T19:33:36.965Z,16.30
2023-03-28T19:36:06.164Z,16.40
2023-03-28T19:38:37.036Z,16.70
2023-03-28T19:41:10.403Z,16.90
2023-03-28T19:43:39.516Z,17.00
2023-03-28T19:46:09.822Z,16.90
2023-03-28T19:48:37.778Z,16.90
2023-03-28T19:51:04.984Z,16.70
2023-03-28T19:53:32.292Z,16.70
2023-03-28T19:56:01.265Z,16.80
2023-03-28T19:58:30.687Z,16.80
2023-03-28T20:01:00.985Z,16.90
2023-03-28T20:03:28.501Z,16.70
2023-03-28T20:05:55.644Z,16.50
2023-03-28T20:08:22.625Z,16.40
2023-03-28T20:10:51.648Z,16.30
2023-03-28T20:13:18.966Z,16.30
2023-03-28T20:15:47.186Z,16.40
2023-03-28T20:18:20.172Z,16.50
2023-03-28T20:20:51.907Z,16.90
2023-03-28T20:23:22.453Z,17.40
2023-03-28T20:25:52.343Z,17.60
2023-03-28T20:28:21.054Z,17.80
2023-03-28T20:30:48.643Z,18.00
2023-03-28T20:33:16.427Z,18.10
2023-03-28T20:36:13.391Z,18.60
2023-03-28T20:38:40.676Z,19.70
2023-03-28T20:41:14.972Z,19.50
2023-03-28T20:43:47.746Z,19.60
2023-03-28T20:46:20.141Z,19.30
2023-03-28T20:48:53.338Z,18.60
2023-03-28T20:51:22.867Z,18.10
2023-03-28T20:53:59.291Z,18.10
2023-03-28T20:56:28.295Z,18.50
2023-03-28T20:58:58.324Z,18.70
2023-03-28T21:01:28.098Z,19.00
2023-03-28T21:04:00.197Z,19.10
2023-03-28T21:06:33.453Z,19.20
2023-03-28T21:09:02.811Z,19.10
2023-03-28T21:11:32.062Z,18.90
2023-03-28T21:14:01.284Z,18.70
2023-03-28T21:16:29.887Z,18.20
2023-03-28T21:18:57.639Z,18.00
2023-03-28T21:21:26.842Z,17.90
2023-03-28T21:23:53.788Z,17.70
2023-03-28T21:26:22.944Z,17.70
2023-03-28T21:28:52.409Z,17.30
2023-03-28T21:31:24.258Z,16.90
2023-03-28T21:33:52.855Z,16.60
2023-03-28T21:36:20.489Z,16.60
2023-03-28T21:38:48.771Z,16.40
2023-03-28T21:41:16.699Z,16.60
2023-03-28T21:43:46.139Z,16.90
2023-03-28T21:46:15.247Z,17.00
2023-03-28T21:48:44.684Z,17.60
2023-03-28T21:51:12.094Z,17.20
2023-03-28T21:53:39.821Z,17.10
2023-03-28T21:56:07.416Z,16.90
2023-03-28T21:58:34.795Z,16.80
2023-03-28T22:01:04.128Z,16.60
2023-03-28T22:03:35.406Z,16.50
2023-03-28T22:06:02.327Z,16.30
2023-03-28T22:08:29.449Z,16.20
2023-03-28T22:10:58.660Z,16.30
2023-03-28T22:13:25.843Z,16.60
2023-03-28T22:15:53.210Z,16.60
2023-03-28T22:18:21.150Z,16.50
2023-03-28T22:20:58.245Z,16.50
2023-03-28T22:23:25.790Z,16.10
2023-03-28T22:25:53.325Z,16.30
2023-03-28T22:28:24.544Z,16.20
2023-03-28T22:30:55.330Z,16.40
2023-03-28T22:33:24.435Z,16.90
2023-03-28T22:35:51.791Z,17.20
2023-03-28T22:38:22.063Z,17.40
2023-03-28T22:40:49.327Z,17.80
2023-03-28T22:43:17.057Z,18.10
2023-03-28T22:45:44.358Z,18.60
2023-03-28T22:48:14.765Z,18.40
2023-03-28T22:50:44.423Z,17.80
2023-03-28T22:53:12.499Z,17.00
2023-03-28T22:55:39.826Z,16.80
2023-03-28T22:58:07.156Z,16.80
2023-03-28T23:00:34.816Z,16.60
2023-03-28T23:03:02.203Z,16.40
2023-03-28T23:05:29.836Z,16.30
2023-03-28T23:07:57.835Z,15.80
2023-03-28T23:10:27.462Z,15.40
2023-03-28T23:12:54.548Z,15.30
2023-03-28T23:15:21.554Z,15.30
2023-03-28T23:17:48.986Z,15.10
2023-03-28T23:20:17.220Z,15.20
2023-03-28T23:22:47.481Z,15.10
2023-03-28T23:25:17.060Z,14.70
2023-03-28T23:27:44.295Z,14.80
2023-03-28T23:30:13.875Z,14.80
2023-03-28T23:32:41.587Z,14.80
2023-03-28T23:35:10.596Z,14.90
2023-03-28T23:37:38.571Z,15.00
2023-03-28T23:40:10.820Z,14.70
2023-03-28T23:42:38.083Z,14.90
2023-03-28T23:45:05.589Z,14.60
2023-03-28T23:47:33.227Z,14.80
2023-03-28T23:50:00.547Z,14.70
2023-03-28T23:52:27.577Z,14.70
2023-03-28T23:54:54.684Z,14.70
2023-03-28T23:57:25.264Z,14.90
2023-03-28T23:59:53.632Z,15.00
